Alexandria, LA (71301)

11:16 AM CDT on August 31, 2016 (GMT -0500)
Charles Place | | Change Station

Elev 80 ft 31.28 °N, 92.49 °W | Updated 1 minute ago

Clear
Clear
88.0 °F
Feels Like 100 °F
N
4.0
Wind Variable Wind from NE
Gusts 10.0 mph

Today
High -- | Low -- °F
--% Chance of Precip.
Yesterday
High -- | Low -- °F
Precip. -- in
Pressure 29.94 in
Visibility 10.0 miles
Clouds Clear
Heat Index 100 °F
Dew Point 76 °F
Humidity 69%
Rainfall 0.00 in
Snow Depth Not available.
6:45 AM 7:33 PM
Waning Crescent, 1% visible
METAR KAEX 311553Z 02005KT 10SM CLR 32/23 A2993 RMK AO2 SLP137 T03170233
Pressure 29.94 in
Visibility 10.0 miles
Clouds Clear
Heat Index 100 °F
Dew Point 76 °F
Humidity 69%
Rainfall 0.00 in
Snow Depth Not available.
6:45 AM 7:33 PM
Waning Crescent, 1% visible
METAR KAEX 311553Z 02005KT 10SM CLR 32/23 A2993 RMK AO2 SLP137 T03170233

10-Day Weather Forecast

Almanac

Astronomy

Aug. 31, 2016 Rise Set
Actual Time
Civil Twilight
Nautical Twilight
Astronomical Twilight
Moon
Length of Visible Light
Length of Day
Tomorrow will be .
, % of the Moon is Illuminated

Today's Extremes

State Highs State Lows

Community

WunderPhotos

Upload Photos

1,936,105 photos uploaded!

WunderBlog® & News

Nearby

Air Quality

  Air Quality AQ Index Pollutant
Not available.

Snow Depth

Station Depth Elevation

Earthquake Activity

City Distance Mag. Time & Date
Minimum magnitude displayed is 2.5.

Coastal Water Temperatures

Place Temperature

Stations

Nearby Weather Stations

Station Location Temp. Windchill Dew Point Humidity Wind Precip. Elev Updated Type
                   

Watches & Warnings

There are currently no watches in effect.